createdAt,value
2022-11-10T00:00:28.707Z,567.9
2022-11-10T00:01:31.192Z,568
2022-11-10T00:02:33.406Z,567.8
2022-11-10T00:03:35.965Z,567.8
2022-11-10T00:04:38.447Z,567.6
2022-11-10T00:05:40.729Z,567.7
2022-11-10T00:06:43.698Z,567.9
2022-11-10T00:07:46.887Z,567.7
2022-11-10T00:08:50.038Z,567.7
2022-11-10T00:09:52.586Z,567.2
2022-11-10T00:10:54.497Z,567.7
2022-11-10T00:11:56.982Z,567.2
2022-11-10T00:12:58.634Z,567.1
2022-11-10T00:14:00.835Z,566.9
2022-11-10T00:15:02.764Z,566.9
2022-11-10T00:16:04.939Z,566.5
2022-11-10T00:17:06.858Z,566.7
2022-11-10T00:18:09.335Z,566.7
2022-11-10T00:19:11.536Z,566.5
2022-11-10T00:20:14.008Z,566.4
2022-11-10T00:21:16.570Z,566.1
2022-11-10T00:22:19.062Z,566.2
2022-11-10T00:23:23.715Z,566.2
2022-11-10T00:24:26.349Z,566.2
2022-11-10T00:25:28.524Z,566.2
2022-11-10T00:26:31.001Z,566
2022-11-10T00:27:33.486Z,565.7
2022-11-10T00:28:35.676Z,565.8
2022-11-10T00:29:37.575Z,565.9
2022-11-10T00:31:45.695Z,565.9
2022-11-10T00:32:48.183Z,565.6
2022-11-10T00:33:50.378Z,565.9
2022-11-10T00:34:52.582Z,565.8
2022-11-10T00:35:54.500Z,565.5
2022-11-10T00:36:56.758Z,565.1
2022-11-10T00:37:58.677Z,565.1
2022-11-10T00:39:01.153Z,565
2022-11-10T00:40:03.646Z,565
2022-11-10T00:41:05.832Z,564.8
2022-11-10T00:42:08.330Z,564.7
2022-11-10T00:43:10.535Z,564.6
2022-11-10T00:44:12.746Z,564.3
2022-11-10T00:45:14.939Z,564.3
2022-11-10T00:46:16.855Z,564.2
2022-11-10T00:47:19.338Z,564.4
2022-11-10T00:48:21.541Z,563.8
2022-11-10T00:49:23.734Z,563.2
2022-11-10T00:50:26.214Z,563.3
2022-11-10T00:51:28.706Z,563.9
2022-11-10T00:52:31.053Z,563.4
2022-11-10T00:53:32.968Z,563.1
2022-11-10T00:54:35.186Z,562.9
2022-11-10T00:55:37.110Z,563.1
2022-11-10T00:56:39.310Z,562.9
2022-11-10T00:57:40.937Z,562.9
2022-11-10T00:58:43.138Z,562.9
2022-11-10T00:59:45.063Z,562.9
2022-11-10T01:00:47.866Z,562.8
2022-11-10T01:01:49.774Z,562.7
2022-11-10T01:02:52.025Z,562.6
2022-11-10T01:03:54.238Z,562.4
2022-11-10T01:04:56.710Z,562.5
2022-11-10T01:05:58.642Z,562.7
2022-11-10T01:07:01.371Z,562.9
2022-11-10T01:08:04.025Z,562.4
2022-11-10T01:09:06.495Z,562.2
2022-11-10T01:10:08.691Z,562.3
2022-11-10T01:11:10.899Z,562.5
2022-11-10T01:12:13.075Z,562.4
2022-11-10T01:13:15.546Z,562.2
2022-11-10T01:14:18.013Z,562.6
2022-11-10T01:16:25.179Z,562.1
2022-11-10T01:17:27.644Z,562.3
2022-11-10T01:18:29.582Z,561.7
2022-11-10T01:19:32.064Z,561.7
2022-11-10T01:20:33.969Z,561.8
2022-11-10T01:21:36.452Z,562.1
2022-11-10T01:22:38.671Z,561.6
2022-11-10T01:23:41.231Z,562.3
2022-11-10T01:24:43.161Z,561.7
2022-11-10T01:25:45.634Z,561.9
2022-11-10T01:26:47.833Z,561.8
2022-11-10T01:27:50.019Z,561.9
2022-11-10T01:28:52.226Z,561.9
2022-11-10T01:29:54.141Z,561.5
2022-11-10T01:30:56.616Z,561.6
2022-11-10T01:31:58.806Z,561.3
2022-11-10T01:33:01.010Z,561.5
2022-11-10T01:34:03.213Z,561.5
2022-11-10T01:35:05.438Z,561.5
2022-11-10T01:36:07.918Z,561.8
2022-11-10T01:37:09.821Z,562.2
2022-11-10T01:38:12.364Z,561.5
2022-11-10T01:39:14.647Z,561.5
2022-11-10T01:40:17.324Z,561.4
2022-11-10T01:41:19.813Z,561.3
2022-11-10T01:42:22.029Z,561.7
2022-11-10T01:43:25.584Z,561.6
2022-11-10T01:44:28.048Z,561.7
2022-11-10T01:45:30.520Z,561.4
2022-11-10T01:46:33.007Z,561.5
2022-11-10T01:47:35.475Z,561.5
2022-11-10T01:48:37.412Z,561.6
2022-11-10T01:49:39.888Z,561.1
2022-11-10T01:50:42.102Z,561.4
2022-11-10T01:51:44.032Z,561.3
2022-11-10T01:52:46.498Z,560.8
2022-11-10T01:53:48.981Z,560.8
2022-11-10T01:54:51.529Z,560.8
2022-11-10T01:55:53.742Z,560.7
2022-11-10T01:56:55.932Z,560.9
2022-11-10T01:57:58.403Z,560.6
2022-11-10T01:59:00.879Z,560.7
2022-11-10T02:00:02.840Z,560.1
2022-11-10T02:01:05.483Z,560.3
2022-11-10T02:02:07.415Z,560.2
2022-11-10T02:03:09.608Z,560.8
2022-11-10T02:04:12.089Z,560.3
2022-11-10T02:05:14.564Z,560.4
2022-11-10T02:06:16.768Z,560.4
2022-11-10T02:07:19.133Z,560.3
2022-11-10T02:08:21.601Z,560.5
2022-11-10T02:09:23.816Z,560.1
2022-11-10T02:10:26.097Z,559.7
2022-11-10T02:11:28.301Z,559.9
2022-11-10T02:12:29.942Z,560.2
2022-11-10T02:13:32.406Z,560.5
2022-11-10T02:14:34.870Z,560.1
2022-11-10T02:15:36.509Z,560.4
2022-11-10T02:16:38.707Z,560
2022-11-10T02:17:40.890Z,560.1
2022-11-10T02:18:42.833Z,560.2
2022-11-10T02:19:45.053Z,560.2
2022-11-10T02:20:47.527Z,560.2
2022-11-10T02:21:49.746Z,560.5
2022-11-10T02:22:52.253Z,559.9
2022-11-10T02:23:54.730Z,560.1
2022-11-10T02:24:56.629Z,560.6
2022-11-10T02:25:59.180Z,560.5
2022-11-10T02:27:01.660Z,560.5
2022-11-10T02:28:03.868Z,560.3
2022-11-10T02:29:06.365Z,560.6
2022-11-10T02:30:08.864Z,560.3
2022-11-10T02:31:10.782Z,560.2
2022-11-10T02:32:13.252Z,560.4
2022-11-10T02:33:15.473Z,560.3
2022-11-10T02:34:17.944Z,560
2022-11-10T02:35:19.854Z,559.8
2022-11-10T02:36:21.780Z,559.7
2022-11-10T02:37:23.973Z,560.3
2022-11-10T02:38:26.170Z,560.1
2022-11-10T02:39:28.640Z,559.8
2022-11-10T02:40:31.172Z,560
2022-11-10T02:41:33.740Z,559.7
2022-11-10T02:42:35.939Z,559.5
2022-11-10T02:43:38.457Z,559.4
2022-11-10T02:44:40.631Z,559
2022-11-10T02:45:43.099Z,558.6
2022-11-10T02:46:45.575Z,558.3
2022-11-10T02:47:48.043Z,557.5
2022-11-10T02:48:50.245Z,557.5
2022-11-10T02:49:52.435Z,557.4
2022-11-10T02:50:54.360Z,557.3
2022-11-10T02:51:56.824Z,556.7
2022-11-10T02:52:59.332Z,556.8
2022-11-10T02:54:01.524Z,555.9
2022-11-10T02:55:03.731Z,555.4
2022-11-10T02:56:06.196Z,555.7
2022-11-10T02:57:08.797Z,555.6
2022-11-10T02:58:10.997Z,555
2022-11-10T02:59:13.481Z,555.2
2022-11-10T03:00:15.680Z,554.8
2022-11-10T03:01:18.256Z,554.8
2022-11-10T03:02:20.771Z,554.2
2022-11-10T03:03:25.430Z,553.8
2022-11-10T03:04:27.986Z,554.1
2022-11-10T03:05:29.909Z,553.5
2022-11-10T03:06:32.859Z,553.4
2022-11-10T03:07:35.086Z,553.3
2022-11-10T03:08:37.632Z,553.2
2022-11-10T03:09:40.106Z,553
2022-11-10T03:10:42.300Z,552.8
2022-11-10T03:11:44.770Z,552.6
2022-11-10T03:12:47.341Z,552.4
2022-11-10T03:14:54.529Z,552.1
2022-11-10T03:15:56.716Z,551.7
2022-11-10T03:16:59.188Z,551.5
2022-11-10T03:18:01.649Z,551
2022-11-10T03:19:04.123Z,550.7
2022-11-10T03:20:06.600Z,550.9
2022-11-10T03:21:08.833Z,550.7
2022-11-10T03:22:11.007Z,550.1
2022-11-10T03:23:13.487Z,550.6
2022-11-10T03:24:15.679Z,550.3
2022-11-10T03:25:18.178Z,550.1
2022-11-10T03:26:20.091Z,549.9
2022-11-10T03:27:22.290Z,549.3
2022-11-10T03:28:24.848Z,549.6
2022-11-10T03:29:27.046Z,549.5
2022-11-10T03:30:29.526Z,549.4
2022-11-10T03:31:31.722Z,549
2022-11-10T03:32:33.945Z,548.5
2022-11-10T03:33:36.187Z,548.6
2022-11-10T03:34:38.113Z,548.6
2022-11-10T03:35:40.037Z,548.2
2022-11-10T03:36:42.235Z,548.5
2022-11-10T03:37:44.719Z,548.6
2022-11-10T03:38:46.907Z,548.4
2022-11-10T03:39:49.409Z,548.5
2022-11-10T03:41:56.879Z,548.8
2022-11-10T03:42:59.070Z,549
2022-11-10T03:44:01.371Z,549
2022-11-10T03:45:03.291Z,548.9
2022-11-10T03:46:05.776Z,548.6
2022-11-10T03:47:07.669Z,548.4
2022-11-10T03:48:09.575Z,547.9
2022-11-10T03:49:11.773Z,547.6
2022-11-10T03:50:14.250Z,547.7
2022-11-10T03:51:16.477Z,547.5
2022-11-10T03:52:18.683Z,547.4
2022-11-10T03:53:23.006Z,547.3
2022-11-10T03:54:25.462Z,547.3
2022-11-10T03:55:27.685Z,547
2022-11-10T03:56:30.175Z,547.2
2022-11-10T03:57:32.089Z,547
2022-11-10T03:58:34.288Z,546.9
2022-11-10T03:59:36.573Z,546.7
2022-11-10T04:00:39.052Z,546.4
2022-11-10T04:01:41.502Z,546.2
2022-11-10T04:02:43.804Z,545.7
2022-11-10T04:04:51.043Z,545.9
2022-11-10T04:05:53.561Z,546.4
2022-11-10T04:06:55.904Z,546.3
2022-11-10T04:07:58.133Z,546
2022-11-10T04:09:00.064Z,546
2022-11-10T04:10:02.534Z,546
2022-11-10T04:11:05.025Z,546.1
2022-11-10T04:12:07.975Z,546.3
2022-11-10T04:13:09.604Z,546.5
2022-11-10T04:14:11.813Z,546.5
2022-11-10T04:15:14.365Z,546.4
2022-11-10T04:16:16.557Z,546
2022-11-10T04:17:19.031Z,546.5
2022-11-10T04:18:21.227Z,546.3
2022-11-10T04:19:23.700Z,546
2022-11-10T04:20:26.167Z,546.3
2022-11-10T04:21:28.648Z,546
2022-11-10T04:22:31.131Z,545.8
2022-11-10T04:23:33.312Z,545.6
2022-11-10T04:24:34.971Z,545.7
2022-11-10T04:25:37.164Z,545.7
2022-11-10T04:26:39.086Z,545.3
2022-11-10T04:27:41.007Z,545.6
2022-11-10T04:28:43.193Z,545.4
2022-11-10T04:29:45.109Z,545.2
2022-11-10T04:30:47.663Z,545
2022-11-10T04:31:50.146Z,544.5
2022-11-10T04:32:52.621Z,544.1
2022-11-10T04:33:54.271Z,543.7
2022-11-10T04:34:56.483Z,543.1
2022-11-10T04:35:58.380Z,543.1
2022-11-10T04:37:00.584Z,543
2022-11-10T04:38:03.058Z,542.7
2022-11-10T04:39:04.978Z,542.3
2022-11-10T04:40:07.177Z,541.8
2022-11-10T04:41:09.647Z,541.4
2022-11-10T04:42:11.849Z,541.5
2022-11-10T04:43:14.049Z,541.1
2022-11-10T04:44:15.984Z,541.1
2022-11-10T04:45:18.168Z,540.9
2022-11-10T04:46:20.440Z,541
2022-11-10T04:47:23.041Z,540.6
2022-11-10T04:48:25.292Z,540.9
2022-11-10T04:49:27.805Z,540.8
2022-11-10T04:50:30.309Z,540.6
2022-11-10T04:51:33.494Z,540.8
2022-11-10T04:52:36.102Z,540.8
2022-11-10T04:53:38.603Z,540.5
2022-11-10T04:54:41.070Z,540.7
2022-11-10T04:55:43.246Z,540.9
2022-11-10T04:56:44.876Z,540.9
2022-11-10T04:57:47.122Z,540.8
2022-11-10T04:58:49.590Z,541
2022-11-10T04:59:51.793Z,540.8
2022-11-10T05:00:54.457Z,540.6
2022-11-10T05:01:57.381Z,540.7
2022-11-10T05:02:59.587Z,540.7
2022-11-10T05:04:01.805Z,540.5
2022-11-10T05:05:04.272Z,540.2
2022-11-10T05:06:06.742Z,540.4
2022-11-10T05:07:09.255Z,540.2
2022-11-10T05:08:11.764Z,540.2
2022-11-10T05:09:13.692Z,540.1
2022-11-10T05:10:15.887Z,540.1
2022-11-10T05:11:17.800Z,540.1
2022-11-10T05:13:26.282Z,540.1
2022-11-10T05:14:28.212Z,539.7
2022-11-10T05:15:30.119Z,539.8
2022-11-10T05:16:32.588Z,539.5
2022-11-10T05:17:34.915Z,539.4
2022-11-10T05:18:37.106Z,539.1
2022-11-10T05:19:39.306Z,539.3
2022-11-10T05:20:41.227Z,539
2022-11-10T05:21:43.694Z,538.9
2022-11-10T05:23:50.882Z,538.7
2022-11-10T05:24:53.069Z,538.6
2022-11-10T05:25:55.548Z,538.3
2022-11-10T05:26:57.464Z,537.9
2022-11-10T05:27:59.667Z,537.8
2022-11-10T05:29:02.152Z,537.7
2022-11-10T05:30:04.345Z,537.7
2022-11-10T05:31:06.526Z,537.4
2022-11-10T05:32:08.722Z,537.6
2022-11-10T05:33:11.293Z,537.2
2022-11-10T05:34:13.763Z,536.6
2022-11-10T05:35:15.954Z,537
2022-11-10T05:36:18.438Z,536.5
2022-11-10T05:37:20.631Z,536.8
2022-11-10T05:38:23.104Z,536.3
2022-11-10T05:39:25.575Z,536.2
2022-11-10T05:40:27.793Z,536.1
2022-11-10T05:41:30.035Z,535.6
2022-11-10T05:42:32.545Z,535.6
2022-11-10T05:43:34.742Z,535.6
2022-11-10T05:44:36.980Z,535.4
2022-11-10T05:45:39.187Z,535
2022-11-10T05:46:41.659Z,535
2022-11-10T05:47:43.855Z,534.6
2022-11-10T05:48:46.414Z,534.4
2022-11-10T05:49:48.892Z,534.2
2022-11-10T05:50:51.108Z,534.2
2022-11-10T05:51:53.178Z,534.1
2022-11-10T05:52:55.451Z,534.1
2022-11-10T05:53:57.960Z,533.8
2022-11-10T05:55:00.493Z,534.1
2022-11-10T05:56:02.759Z,533.6
2022-11-10T05:57:04.688Z,533.8
2022-11-10T05:58:06.612Z,533.5
2022-11-10T05:59:08.807Z,533.3
2022-11-10T06:00:11.016Z,533.2
2022-11-10T06:01:12.979Z,533.1
2022-11-10T06:02:15.447Z,533.1
2022-11-10T06:03:17.786Z,532.9
2022-11-10T06:04:20.099Z,533.1
2022-11-10T06:06:28.755Z,532.9
2022-11-10T06:07:30.947Z,533.1
2022-11-10T06:08:33.416Z,532.3
2022-11-10T06:09:35.973Z,532.2
2022-11-10T06:10:38.172Z,532.1
2022-11-10T06:11:39.800Z,531.8
2022-11-10T06:12:41.711Z,531.6
2022-11-10T06:13:43.903Z,531.1
2022-11-10T06:14:46.373Z,530.6
2022-11-10T06:16:53.616Z,530.1
2022-11-10T06:17:56.080Z,529.3
2022-11-10T06:18:58.550Z,529.4
2022-11-10T06:20:01.127Z,528.8
2022-11-10T06:21:03.332Z,528.6
2022-11-10T06:23:10.508Z,528.2
2022-11-10T06:24:12.435Z,527.6
2022-11-10T06:25:14.654Z,527.3
2022-11-10T06:26:16.851Z,527.2
2022-11-10T06:27:19.321Z,526.6
2022-11-10T06:28:21.216Z,526.5
2022-11-10T06:30:28.417Z,525.8
2022-11-10T06:31:30.927Z,525.9
2022-11-10T06:32:32.855Z,525.9
2022-11-10T06:33:35.068Z,525.3
2022-11-10T06:34:37.283Z,525
2022-11-10T06:35:39.561Z,524.9
2022-11-10T06:36:41.760Z,525
2022-11-10T06:37:43.668Z,525.2
2022-11-10T06:38:45.853Z,525.2
2022-11-10T06:39:48.043Z,525.4
2022-11-10T06:40:50.233Z,525.2
2022-11-10T06:41:52.419Z,525.8
2022-11-10T06:42:54.629Z,525.7
2022-11-10T06:43:56.587Z,525.4
2022-11-10T06:44:59.072Z,525.4
2022-11-10T06:46:00.982Z,525.4
2022-11-10T06:47:03.291Z,524.8
2022-11-10T06:48:04.941Z,524.7
2022-11-10T06:49:06.881Z,524.3
2022-11-10T06:50:09.081Z,524.2
2022-11-10T06:51:11.352Z,524.1
2022-11-10T06:52:13.817Z,523.7
2022-11-10T06:53:15.748Z,523.8
2022-11-10T06:54:18.222Z,523.9
2022-11-10T06:55:20.709Z,523.9
2022-11-10T06:56:22.910Z,524
2022-11-10T06:57:25.426Z,523.4
2022-11-10T06:58:27.329Z,523.2
2022-11-10T06:59:29.804Z,523
2022-11-10T07:00:32.412Z,522.7
2022-11-10T07:01:34.933Z,522.8
2022-11-10T07:02:37.436Z,522.1
2022-11-10T07:04:44.631Z,521.7
2022-11-10T07:05:46.831Z,521.6
2022-11-10T07:06:49.873Z,521.6
2022-11-10T07:07:52.376Z,521.5
2022-11-10T07:08:54.583Z,521.6
2022-11-10T07:09:56.778Z,521
2022-11-10T07:10:58.976Z,520.9
2022-11-10T07:12:01.166Z,520.9
2022-11-10T07:13:03.392Z,521.1
2022-11-10T07:14:05.859Z,520.7
2022-11-10T07:15:07.779Z,520.7
2022-11-10T07:16:09.970Z,520.6
2022-11-10T07:17:11.905Z,519.9
2022-11-10T07:18:14.122Z,520.1
2022-11-10T07:19:16.593Z,519.6
2022-11-10T07:20:18.825Z,519.6
2022-11-10T07:21:21.015Z,518.6
2022-11-10T07:22:23.577Z,518.6
2022-11-10T07:23:26.588Z,518.2
2022-11-10T07:24:28.769Z,517.9
2022-11-10T07:25:31.240Z,518.1
2022-11-10T07:26:33.710Z,518.3
2022-11-10T07:27:36.211Z,517.8
2022-11-10T07:28:38.684Z,517.5
2022-11-10T07:29:41.162Z,517.2
2022-11-10T07:30:43.652Z,517.3
2022-11-10T07:31:45.835Z,517.2
2022-11-10T07:32:47.742Z,516.8
2022-11-10T07:34:54.673Z,516.6
2022-11-10T07:35:56.591Z,516.8
2022-11-10T07:36:58.787Z,516.4
2022-11-10T07:38:01.357Z,516.6
2022-11-10T07:39:03.830Z,516.5
2022-11-10T07:40:06.304Z,516.5
2022-11-10T07:41:08.788Z,516
2022-11-10T07:42:10.719Z,516.5
2022-11-10T07:43:12.951Z,516.1
2022-11-10T07:44:15.153Z,516.5
2022-11-10T07:45:17.637Z,516.5
2022-11-10T07:46:19.565Z,516.4
2022-11-10T07:47:21.212Z,516
2022-11-10T07:48:23.119Z,516
2022-11-10T07:49:25.628Z,515.7
2022-11-10T07:50:28.040Z,515.5
2022-11-10T07:51:30.238Z,515
2022-11-10T07:52:32.716Z,515.3
2022-11-10T07:53:35.271Z,515.1
2022-11-10T07:54:37.482Z,515.1
2022-11-10T07:55:39.680Z,515.2
2022-11-10T07:56:41.883Z,514.8
2022-11-10T07:57:44.080Z,515
2022-11-10T07:58:46.295Z,515.1
2022-11-10T07:59:50.801Z,514.5
2022-11-10T08:00:55.722Z,514.7
2022-11-10T08:01:58.601Z,514.5
2022-11-10T08:03:01.138Z,514.5
2022-11-10T08:04:03.347Z,514.4
2022-11-10T08:05:05.844Z,514.7
2022-11-10T08:06:08.031Z,514.1
2022-11-10T08:07:10.941Z,514.4
2022-11-10T08:08:13.456Z,514.5
2022-11-10T08:09:15.733Z,514.5
2022-11-10T08:10:17.927Z,514.4
2022-11-10T08:11:20.401Z,514.2
2022-11-10T08:12:22.598Z,514
2022-11-10T08:13:26.484Z,513.8
2022-11-10T08:14:28.399Z,513.7
2022-11-10T08:15:30.880Z,514.4
2022-11-10T08:16:33.376Z,514.1
2022-11-10T08:17:35.876Z,514.3
2022-11-10T08:18:38.361Z,514.1
2022-11-10T08:19:40.837Z,513.8
2022-11-10T08:20:43.353Z,513.7
2022-11-10T08:21:45.303Z,513.3
2022-11-10T08:22:47.238Z,513.3
2022-11-10T08:23:49.721Z,513.4
2022-11-10T08:24:52.295Z,513.2
2022-11-10T08:25:54.772Z,513.5
2022-11-10T08:26:57.250Z,513.1
2022-11-10T08:27:59.725Z,512.7
2022-11-10T08:29:01.901Z,512.8
2022-11-10T08:30:03.823Z,512.3
2022-11-10T08:31:07.847Z,512.3
2022-11-10T08:32:09.765Z,512.8
2022-11-10T08:33:11.989Z,512.7
2022-11-10T08:34:14.539Z,512.8
2022-11-10T08:35:16.753Z,512.5
2022-11-10T08:36:18.989Z,512.4
2022-11-10T08:37:20.367Z,512.4
2022-11-10T08:38:22.570Z,512.5
2022-11-10T08:40:30.391Z,512.6
2022-11-10T08:41:32.605Z,512.3
2022-11-10T08:42:34.820Z,512.1
2022-11-10T08:43:37.291Z,511.9
2022-11-10T08:44:39.217Z,512.2
2022-11-10T08:45:41.448Z,512
2022-11-10T08:46:43.356Z,512
2022-11-10T08:47:45.836Z,511.8
2022-11-10T08:48:48.332Z,511.7
2022-11-10T08:49:50.536Z,511.9
2022-11-10T08:50:52.505Z,511.5
2022-11-10T08:51:54.163Z,511.1
2022-11-10T08:52:56.394Z,511.2
2022-11-10T08:53:58.876Z,510.8
2022-11-10T08:55:01.100Z,511.2
2022-11-10T08:56:03.710Z,510.7
2022-11-10T08:57:06.209Z,511
2022-11-10T08:58:08.412Z,510.9
2022-11-10T08:59:10.616Z,510
2022-11-10T09:00:12.822Z,509.6
2022-11-10T09:01:15.317Z,509.3
2022-11-10T09:02:17.534Z,509
2022-11-10T09:03:21.153Z,508.8
2022-11-10T09:04:23.793Z,508.8
2022-11-10T09:05:26.275Z,508.7
2022-11-10T09:06:28.759Z,508.9
2022-11-10T09:07:30.992Z,508.7
2022-11-10T09:08:33.474Z,508.7
2022-11-10T09:09:35.983Z,508.3
2022-11-10T09:10:38.187Z,508.4
2022-11-10T09:11:41.106Z,508.1
2022-11-10T09:12:43.326Z,507.9
2022-11-10T09:13:45.809Z,507.7
2022-11-10T09:14:48.299Z,506.9
2022-11-10T09:15:50.777Z,507.2
2022-11-10T09:16:53.008Z,507.4
2022-11-10T09:17:55.207Z,507.3
2022-11-10T09:18:57.395Z,506.8
2022-11-10T09:20:00.239Z,506.7
2022-11-10T09:21:02.482Z,506.6
2022-11-10T09:22:04.704Z,506.6
2022-11-10T09:23:07.245Z,506.6
2022-11-10T09:24:09.732Z,506.4
2022-11-10T09:25:12.208Z,506.7
2022-11-10T09:26:14.707Z,506.1
2022-11-10T09:27:17.006Z,505.7
2022-11-10T09:28:19.495Z,505.6
2022-11-10T09:29:21.449Z,505.3
2022-11-10T09:30:23.703Z,505.2
2022-11-10T09:31:26.316Z,505.3
2022-11-10T09:32:28.818Z,504.8
2022-11-10T09:33:31.031Z,505.1
2022-11-10T09:34:32.996Z,505.1
2022-11-10T09:35:34.938Z,505.4
2022-11-10T09:36:37.441Z,505.2
2022-11-10T09:37:39.930Z,505.1
2022-11-10T09:38:42.171Z,504.7
2022-11-10T09:39:44.653Z,504.9
2022-11-10T09:40:47.127Z,504.6
2022-11-10T09:41:49.608Z,504.8
2022-11-10T09:42:52.180Z,504.6
2022-11-10T09:43:54.647Z,504.2
2022-11-10T09:44:56.844Z,504.4
2022-11-10T09:45:59.053Z,504.5
2022-11-10T09:47:01.543Z,504.2
2022-11-10T09:48:03.211Z,504.2
2022-11-10T09:49:05.130Z,504.3
2022-11-10T09:50:07.084Z,504.2
2022-11-10T09:51:09.285Z,504.2
2022-11-10T09:52:11.484Z,504.1
2022-11-10T09:53:13.955Z,504.1
2022-11-10T09:54:16.463Z,503.6
2022-11-10T09:55:18.976Z,503.4
2022-11-10T09:56:21.469Z,504.1
2022-11-10T09:57:23.403Z,504.3
2022-11-10T09:58:26.725Z,504.1
2022-11-10T09:59:29.206Z,504.6
2022-11-10T10:00:31.135Z,503.8
2022-11-10T10:01:33.622Z,503.9
2022-11-10T10:02:35.589Z,503.6
2022-11-10T10:03:37.798Z,503.5
2022-11-10T10:05:45.141Z,503.4
2022-11-10T10:07:52.144Z,503
2022-11-10T10:08:54.654Z,503.3
2022-11-10T10:09:57.151Z,503.1
2022-11-10T10:10:59.626Z,503.5
2022-11-10T10:12:02.096Z,503.1
2022-11-10T10:13:04.583Z,502.9
2022-11-10T10:14:06.924Z,501.5
2022-11-10T10:15:09.407Z,502
2022-11-10T10:16:12.149Z,502.2
2022-11-10T10:17:14.075Z,502.2
2022-11-10T10:18:16.278Z,502.1
2022-11-10T10:19:18.543Z,501.9
2022-11-10T10:20:21.145Z,502
2022-11-10T10:21:23.350Z,501.8
2022-11-10T10:22:25.845Z,501.4
2022-11-10T10:24:33.086Z,501.3
2022-11-10T10:25:35.603Z,501.3
2022-11-10T10:26:38.097Z,501.4
2022-11-10T10:27:40.301Z,501.5
2022-11-10T10:28:42.243Z,501.1
2022-11-10T10:29:44.532Z,501.3
2022-11-10T10:30:46.464Z,501
2022-11-10T10:31:48.664Z,501.4
2022-11-10T10:32:51.150Z,501.4
2022-11-10T10:33:53.384Z,501.5
2022-11-10T10:34:55.909Z,501.3
2022-11-10T10:35:57.866Z,501.5
2022-11-10T10:37:00.119Z,501.5
2022-11-10T10:38:02.335Z,501.9
2022-11-10T10:39:04.547Z,501.7
2022-11-10T10:40:06.760Z,502.4
2022-11-10T10:41:09.289Z,503.1
2022-11-10T10:42:26.150Z,502.6
2022-11-10T10:43:28.367Z,503
2022-11-10T10:44:30.856Z,503.1
2022-11-10T10:45:33.760Z,502.7
2022-11-10T10:46:37.623Z,502.2
2022-11-10T10:47:40.174Z,502.2
2022-11-10T10:48:42.454Z,501.9
2022-11-10T10:49:44.673Z,501.8
2022-11-10T10:50:47.158Z,501.4
2022-11-10T10:51:48.815Z,501.3
2022-11-10T10:52:51.021Z,501.1
2022-11-10T10:53:52.655Z,501
2022-11-10T10:54:54.861Z,500.7
2022-11-10T10:55:57.073Z,501.1
2022-11-10T10:56:59.010Z,500.7
2022-11-10T10:58:01.159Z,500.7
2022-11-10T10:59:03.750Z,500.9
2022-11-10T11:00:06.228Z,500.5
2022-11-10T11:01:09.178Z,500.7
2022-11-10T11:02:11.423Z,500.6
2022-11-10T11:03:13.654Z,500.8
2022-11-10T11:04:16.128Z,500.4
2022-11-10T11:05:18.623Z,500.3
2022-11-10T11:06:20.006Z,500.5
2022-11-10T11:07:22.211Z,500.5
2022-11-10T11:08:26.339Z,500.5
2022-11-10T11:09:27.726Z,500.3
2022-11-10T11:10:29.938Z,500.5
2022-11-10T11:11:32.454Z,500.4
2022-11-10T11:12:34.441Z,500.3
2022-11-10T11:13:36.644Z,500.2
2022-11-10T11:15:43.847Z,500.2
2022-11-10T11:16:46.411Z,499.9
2022-11-10T11:17:49.105Z,499.9
2022-11-10T11:18:51.072Z,499.3
2022-11-10T11:20:58.267Z,499.2
2022-11-10T11:22:00.470Z,498.8
2022-11-10T11:23:02.441Z,498.7
2022-11-10T11:24:04.644Z,498.5
2022-11-10T11:25:06.942Z,498.2
2022-11-10T11:26:09.134Z,498.4
2022-11-10T11:27:11.071Z,498.6
2022-11-10T11:28:13.300Z,498.7
2022-11-10T11:29:15.305Z,498.6
2022-11-10T11:30:17.501Z,498.6
2022-11-10T11:31:19.421Z,498.7
2022-11-10T11:32:21.437Z,498.7
2022-11-10T11:33:23.627Z,498.8
2022-11-10T11:34:25.280Z,498.2
2022-11-10T11:35:27.768Z,498.5
2022-11-10T11:36:30.252Z,498.2
2022-11-10T11:37:32.464Z,498.2
2022-11-10T11:38:34.410Z,498.2
2022-11-10T11:39:36.656Z,498.1
2022-11-10T11:40:39.142Z,498.6
2022-11-10T11:41:41.071Z,498.7
2022-11-10T11:42:43.276Z,498.8
2022-11-10T11:43:45.233Z,499.7
2022-11-10T11:44:47.753Z,499.1
2022-11-10T11:45:50.272Z,499.1
2022-11-10T11:46:53.033Z,499.2
2022-11-10T11:47:55.614Z,499
2022-11-10T11:48:57.552Z,499.6
2022-11-10T11:49:59.481Z,499.8
2022-11-10T11:51:01.700Z,499.5
2022-11-10T11:52:03.894Z,499.8
2022-11-10T11:53:06.368Z,499.6
2022-11-10T11:54:08.859Z,499.4
2022-11-10T11:55:11.090Z,499.2
2022-11-10T11:56:13.038Z,499.3
2022-11-10T11:57:15.537Z,499.6
2022-11-10T11:58:18.015Z,499.5
2022-11-10T11:59:20.294Z,500
2022-11-10T12:00:22.245Z,500
2022-11-10T12:01:24.745Z,500
2022-11-10T12:02:27.314Z,500.1
2022-11-10T12:03:29.974Z,500.4
2022-11-10T12:04:32.194Z,500.7
2022-11-10T12:05:34.677Z,500.6
2022-11-10T12:06:37.385Z,500.2
2022-11-10T12:07:39.880Z,500.4
2022-11-10T12:08:42.087Z,500.5
2022-11-10T12:09:43.995Z,500.6
2022-11-10T12:10:46.199Z,500.1
2022-11-10T12:11:48.145Z,500.2
2022-11-10T12:12:50.069Z,500.1
2022-11-10T12:13:52.283Z,500.2
2022-11-10T12:14:54.779Z,500.2
2022-11-10T12:15:56.458Z,500
2022-11-10T12:16:58.950Z,500.5
2022-11-10T12:18:01.431Z,500.6
2022-11-10T12:19:03.983Z,500.3
2022-11-10T12:20:06.462Z,500.6
2022-11-10T12:21:08.950Z,500.4
2022-11-10T12:22:11.147Z,500.3
2022-11-10T12:23:13.370Z,500.7
2022-11-10T12:24:15.917Z,500.5
2022-11-10T12:25:17.551Z,500.2
2022-11-10T12:26:20.034Z,500.2
2022-11-10T12:27:22.520Z,500.4
2022-11-10T12:28:27.037Z,500
2022-11-10T12:29:28.958Z,500.1
2022-11-10T12:30:31.486Z,500.2
2022-11-10T12:31:33.417Z,500.6
2022-11-10T12:32:35.620Z,500.3
2022-11-10T12:33:37.821Z,500
2022-11-10T12:34:40.124Z,500.1
2022-11-10T12:35:42.334Z,500.3
2022-11-10T12:36:44.535Z,500.2
2022-11-10T12:37:46.207Z,500.3
2022-11-10T12:38:48.695Z,500.8
2022-11-10T12:39:50.909Z,500.8
2022-11-10T12:40:53.414Z,500.6
2022-11-10T12:41:55.662Z,501.1
2022-11-10T12:42:58.151Z,501.1
2022-11-10T12:44:00.351Z,501
2022-11-10T12:45:02.596Z,501.4
2022-11-10T12:46:05.105Z,501.4
2022-11-10T12:47:07.314Z,501.7
2022-11-10T12:48:09.803Z,501.8
2022-11-10T12:49:12.012Z,501.8
2022-11-10T12:50:14.714Z,501.8
2022-11-10T12:51:17.206Z,502
2022-11-10T12:52:19.446Z,501.9
2022-11-10T12:53:21.412Z,501.7
2022-11-10T12:54:23.626Z,501.7
2022-11-10T12:55:26.151Z,501.6
2022-11-10T12:56:27.838Z,500.8
2022-11-10T12:57:30.073Z,501
2022-11-10T12:58:32.024Z,500.7
2022-11-10T12:59:34.525Z,500.5
2022-11-10T13:00:36.755Z,500.5
2022-11-10T13:01:39.488Z,500.5
2022-11-10T13:02:42.018Z,500.7
2022-11-10T13:03:44.252Z,500.8
2022-11-10T13:04:46.475Z,500.7
2022-11-10T13:05:49.072Z,501.1
2022-11-10T13:06:51.620Z,500.9
2022-11-10T13:07:53.854Z,501.2
2022-11-10T13:08:56.371Z,501
2022-11-10T13:09:58.313Z,501.2
2022-11-10T13:11:00.527Z,501
2022-11-10T13:12:03.026Z,501.4
2022-11-10T13:13:05.219Z,501.4
2022-11-10T13:14:07.423Z,501.3
2022-11-10T13:15:09.637Z,500.7
2022-11-10T13:16:11.895Z,500.8
2022-11-10T13:17:14.163Z,500.7
2022-11-10T13:18:16.366Z,500.6
2022-11-10T13:19:18.297Z,500.1
2022-11-10T13:21:25.602Z,500.3
2022-11-10T13:22:27.803Z,500.2
2022-11-10T13:23:30.323Z,500
2022-11-10T13:24:32.950Z,500.1
2022-11-10T13:25:35.435Z,499.8
2022-11-10T13:26:37.628Z,499.8
2022-11-10T13:27:40.101Z,500
2022-11-10T13:28:42.626Z,500.3
2022-11-10T13:29:45.166Z,499.9
2022-11-10T13:30:47.702Z,499.6
2022-11-10T13:31:50.212Z,499.8
2022-11-10T13:32:52.468Z,499.9
2022-11-10T13:33:54.421Z,499.6
2022-11-10T13:34:56.660Z,499.5
2022-11-10T13:35:59.148Z,499.9
2022-11-10T13:37:01.706Z,500.1
2022-11-10T13:38:04.240Z,500.2
2022-11-10T13:39:06.776Z,500.3
2022-11-10T13:40:09.301Z,500.3
2022-11-10T13:41:11.249Z,500.4
2022-11-10T13:42:13.480Z,499.7
2022-11-10T13:43:15.412Z,500.2
2022-11-10T13:44:17.628Z,499.8
2022-11-10T13:45:19.575Z,500
2022-11-10T13:46:22.070Z,500.1
2022-11-10T13:47:24.560Z,500.4
2022-11-10T13:48:27.383Z,500.1
2022-11-10T13:49:29.593Z,500.5